createdAt,value
2019-05-06T00:01:34.377Z,82.31
2019-05-06T00:04:04.956Z,82.52
2019-05-06T00:06:34.559Z,82.52
2019-05-06T00:09:04.860Z,82.09
2019-05-06T00:11:34.647Z,82.79
2019-05-06T00:14:04.072Z,83.27
2019-05-06T00:16:34.804Z,82.89
2019-05-06T00:19:04.962Z,83.42
2019-05-06T00:21:35.513Z,83.61
2019-05-06T00:24:04.705Z,83.61
2019-05-06T00:26:44.859Z,83.83
2019-05-06T00:29:19.197Z,83.83
2019-05-06T00:31:47.983Z,83.93
2019-05-06T00:34:16.855Z,83.89
2019-05-06T00:36:45.846Z,84.10
2019-05-06T00:39:36.034Z,84.48
2019-05-06T00:42:09.558Z,84.48
2019-05-06T00:44:38.426Z,84.33
2019-05-06T00:47:07.402Z,84.58
2019-05-06T00:49:36.514Z,84.48
2019-05-06T00:52:05.834Z,84.92
2019-05-06T00:54:37.602Z,84.92
2019-05-06T00:57:06.502Z,84.67
2019-05-06T00:59:35.415Z,84.87
2019-05-06T01:02:04.714Z,84.27
2019-05-06T01:04:34.001Z,84.42
2019-05-06T01:07:03.955Z,84.69
2019-05-06T01:09:34.394Z,84.69
2019-05-06T01:12:03.798Z,85.08
2019-05-06T01:14:37.765Z,85.25
2019-05-06T01:17:06.603Z,84.61
2019-05-06T01:19:35.581Z,84.75
2019-05-06T01:22:04.707Z,85.47
2019-05-06T01:24:34.484Z,85.51
2019-05-06T01:27:04.091Z,85.57
2019-05-06T01:29:34.767Z,85.83
2019-05-06T01:32:03.817Z,85.49
2019-05-06T01:34:33.878Z,85.74
2019-05-06T01:37:03.696Z,86.13
2019-05-06T01:39:57.546Z,85.89
2019-05-06T01:42:34.460Z,85.88
2019-05-06T01:45:04.748Z,86.20
2019-05-06T01:47:34.563Z,86.51
2019-05-06T01:50:04.492Z,86.43
2019-05-06T01:52:34.492Z,86.73
2019-05-06T01:55:04.841Z,86.86
2019-05-06T01:57:33.893Z,87.22
2019-05-06T02:00:04.785Z,86.89
2019-05-06T02:02:34.371Z,86.81
2019-05-06T02:05:04.799Z,86.89
2019-05-06T02:07:34.966Z,86.41
2019-05-06T02:10:04.092Z,86.70
2019-05-06T02:12:34.222Z,86.21
2019-05-06T02:15:03.971Z,86.21
2019-05-06T02:17:34.550Z,85.43
2019-05-06T02:20:04.281Z,85.77
2019-05-06T02:22:46.203Z,85.67
2019-05-06T02:25:34.601Z,86.06
2019-05-06T02:28:04.010Z,86.13
2019-05-06T02:30:50.507Z,86.56
2019-05-06T02:33:29.680Z,87.01
2019-05-06T02:36:06.550Z,87.48
2019-05-06T02:38:45.871Z,86.86
2019-05-06T02:41:05.507Z,86.81
2019-05-06T02:43:34.890Z,86.93
2019-05-06T02:46:04.358Z,86.90
2019-05-06T02:48:47.829Z,86.98
2019-05-06T02:51:18.606Z,86.82
2019-05-06T02:53:47.410Z,86.67
2019-05-06T02:56:16.247Z,86.60
2019-05-06T02:58:45.293Z,86.42
2019-05-06T03:01:14.564Z,86.50
2019-05-06T03:03:43.835Z,86.50
2019-05-06T03:06:13.232Z,86.37
2019-05-06T03:08:43.372Z,86.19
2019-05-06T03:11:13.557Z,86.10
2019-05-06T03:13:43.953Z,86.42
2019-05-06T03:16:14.333Z,86.46
2019-05-06T03:18:43.709Z,86.26
2019-05-06T03:21:33.639Z,86.42
2019-05-06T03:24:23.470Z,85.79
2019-05-06T03:26:56.125Z,86.18
2019-05-06T03:29:25.346Z,86.06
2019-05-06T03:31:56.200Z,86.22
2019-05-06T03:34:49.301Z,85.44
2019-05-06T03:36:56.536Z,85.81
2019-05-06T03:39:25.798Z,85.71
2019-05-06T03:41:54.604Z,86.04
2019-05-06T03:44:24.119Z,86.26
2019-05-06T03:47:27.286Z,86.25
2019-05-06T03:49:56.466Z,86.08
2019-05-06T03:52:29.026Z,86.01
2019-05-06T03:54:59.115Z,86.07
2019-05-06T03:57:28.754Z,86.21
2019-05-06T04:00:00.270Z,86.54
2019-05-06T04:02:39.408Z,86.51
2019-05-06T04:05:05.954Z,85.87
2019-05-06T04:07:45.451Z,86.05
2019-05-06T04:10:13.638Z,86.13
2019-05-06T04:12:44.460Z,85.64
2019-05-06T04:15:14.321Z,85.66
2019-05-06T04:17:53.944Z,84.83
2019-05-06T04:20:45.130Z,84.76
2019-05-06T04:23:36.323Z,85.38
2019-05-06T04:26:32.956Z,84.56
2019-05-06T04:29:08.098Z,84.36
2019-05-06T04:31:43.340Z,84.29
2019-05-06T04:34:15.870Z,83.53
2019-05-06T04:36:43.984Z,83.46
2019-05-06T04:39:13.065Z,82.95
2019-05-06T04:41:43.405Z,83.50
2019-05-06T04:44:13.918Z,83.76
2019-05-06T04:46:44.426Z,82.69
2019-05-06T04:49:23.714Z,82.14
2019-05-06T04:51:59.083Z,81.43
2019-05-06T04:54:28.184Z,81.43
2019-05-06T04:56:57.086Z,81.00
2019-05-06T04:59:25.916Z,81.53
2019-05-06T05:01:54.773Z,81.53
2019-05-06T05:04:31.829Z,81.15
2019-05-06T05:06:54.734Z,81.15
2019-05-06T05:09:23.736Z,81.69
2019-05-06T05:12:02.492Z,81.01
2019-05-06T05:14:42.285Z,81.43
2019-05-06T05:17:39.127Z,80.87
2019-05-06T05:20:08.402Z,80.16
2019-05-06T05:22:37.218Z,79.56
2019-05-06T05:25:06.128Z,78.81
2019-05-06T05:27:35.530Z,78.04
2019-05-06T05:30:04.444Z,77.59
2019-05-06T05:32:34.314Z,77.64
2019-05-06T05:35:03.189Z,77.12
2019-05-06T05:37:32.847Z,77.02
2019-05-06T05:40:03.072Z,76.76
2019-05-06T05:42:49.448Z,76.46
2019-05-06T05:45:18.329Z,76.99
2019-05-06T05:47:48.019Z,76.13
2019-05-06T05:50:22.807Z,76.19
2019-05-06T05:52:52.133Z,76.32
2019-05-06T05:55:21.970Z,76.30
2019-05-06T05:57:51.885Z,75.58
2019-05-06T06:00:22.531Z,73.80
2019-05-06T06:02:53.043Z,71.51
2019-05-06T06:05:23.020Z,69.28
2019-05-06T06:07:52.990Z,69.48
2019-05-06T06:10:52.246Z,67.78
2019-05-06T06:13:22.275Z,65.00
2019-05-06T06:16:12.904Z,63.95
2019-05-06T06:19:06.157Z,63.81
2019-05-06T06:21:42.802Z,64.45
2019-05-06T06:24:22.687Z,62.74
2019-05-06T06:26:52.050Z,62.32
2019-05-06T06:29:22.774Z,59.59
2019-05-06T06:32:20.132Z,57.26
2019-05-06T06:35:11.435Z,59.80
2019-05-06T06:37:56.571Z,58.60
2019-05-06T06:40:27.701Z,52.78
2019-05-06T06:43:02.142Z,52.22
2019-05-06T06:45:32.548Z,51.39
2019-05-06T06:48:03.145Z,50.84
2019-05-06T06:50:34.969Z,51.58
2019-05-06T06:53:03.943Z,50.15
2019-05-06T06:55:32.853Z,50.99
2019-05-06T06:58:11.875Z,49.42
2019-05-06T07:00:47.102Z,50.88
2019-05-06T07:03:25.537Z,48.73
2019-05-06T07:06:02.330Z,50.09
2019-05-06T07:08:36.753Z,46.58
2019-05-06T07:11:02.259Z,50.56
2019-05-06T07:13:32.710Z,49.03
2019-05-06T07:16:02.941Z,49.91
2019-05-06T07:18:33.193Z,47.51
2019-05-06T07:21:24.032Z,44.75
2019-05-06T07:23:53.074Z,48.28
2019-05-06T07:26:24.173Z,47.73
2019-05-06T07:28:53.118Z,46.61
2019-05-06T07:31:25.870Z,45.65
2019-05-06T07:33:52.870Z,43.38
2019-05-06T07:36:22.839Z,42.63
2019-05-06T07:38:52.687Z,42.97
2019-05-06T07:41:36.294Z,45.07
2019-05-06T07:44:16.636Z,41.94
2019-05-06T07:46:53.341Z,41.16
2019-05-06T07:49:23.560Z,43.86
2019-05-06T07:51:53.075Z,44.68
2019-05-06T07:54:22.161Z,44.50
2019-05-06T07:56:52.602Z,40.00
2019-05-06T07:59:22.464Z,42.15
2019-05-06T08:01:53.894Z,44.25
2019-05-06T08:04:23.065Z,42.95
2019-05-06T08:06:52.344Z,41.77
2019-05-06T08:09:22.102Z,42.33
2019-05-06T08:11:57.002Z,43.27
2019-05-06T08:14:42.936Z,42.78
2019-05-06T08:17:18.114Z,41.65
2019-05-06T08:19:46.918Z,46.22
2019-05-06T08:22:19.598Z,43.62
2019-05-06T08:24:48.488Z,45.88
2019-05-06T08:27:17.379Z,43.75
2019-05-06T08:29:46.176Z,45.66
2019-05-06T08:32:15.076Z,42.57
2019-05-06T08:34:43.851Z,41.88
2019-05-06T08:37:31.934Z,41.31
2019-05-06T08:40:03.307Z,43.91
2019-05-06T08:42:32.897Z,42.53
2019-05-06T08:45:02.370Z,40.68
2019-05-06T08:47:32.956Z,42.76
2019-05-06T08:50:09.573Z,41.28
2019-05-06T08:52:56.037Z,42.61
2019-05-06T08:55:32.616Z,44.57
2019-05-06T08:58:02.946Z,44.68
2019-05-06T09:00:33.009Z,41.23
2019-05-06T09:03:04.370Z,40.45
2019-05-06T09:05:33.074Z,43.88
2019-05-06T09:08:03.599Z,41.84
2019-05-06T09:10:32.657Z,47.42
2019-05-06T09:13:02.034Z,40.62
2019-05-06T09:15:32.694Z,43.61
2019-05-06T09:18:03.022Z,42.34
2019-05-06T09:20:32.649Z,42.47
2019-05-06T09:23:04.514Z,42.18
2019-05-06T09:25:36.297Z,43.69
2019-05-06T09:28:27.153Z,42.13
2019-05-06T09:31:02.250Z,41.93
2019-05-06T09:33:37.925Z,41.46
2019-05-06T09:36:06.793Z,38.30
2019-05-06T09:38:35.568Z,39.95
2019-05-06T09:41:05.043Z,38.89
2019-05-06T09:43:33.994Z,40.76
2019-05-06T09:46:02.875Z,42.95
2019-05-06T09:48:52.796Z,41.55
2019-05-06T09:51:22.096Z,45.88
2019-05-06T09:54:19.029Z,45.45
2019-05-06T09:56:53.338Z,45.69
2019-05-06T09:59:22.443Z,47.42
2019-05-06T10:01:52.771Z,51.38
2019-05-06T10:04:22.248Z,50.09
2019-05-06T10:06:57.337Z,51.74
2019-05-06T10:09:24.952Z,50.14
2019-05-06T10:11:52.687Z,51.02
2019-05-06T10:14:23.371Z,50.20
2019-05-06T10:16:52.462Z,51.46
2019-05-06T10:19:22.631Z,51.43
2019-05-06T10:21:53.065Z,50.67
2019-05-06T10:24:24.772Z,50.32
2019-05-06T10:26:57.817Z,50.10
2019-05-06T10:29:43.647Z,53.06
2019-05-06T10:32:26.931Z,52.19
2019-05-06T10:34:58.899Z,54.63
2019-05-06T10:37:58.916Z,47.66
2019-05-06T10:40:32.971Z,53.31
2019-05-06T10:43:22.126Z,48.68
2019-05-06T10:45:52.022Z,49.41
2019-05-06T10:48:22.458Z,48.28
2019-05-06T10:50:54.299Z,46.76
2019-05-06T10:53:24.385Z,44.85
2019-05-06T10:55:57.870Z,45.30
2019-05-06T10:58:26.806Z,47.75
2019-05-06T11:01:07.635Z,47.81
2019-05-06T11:03:36.398Z,47.08
2019-05-06T11:06:05.369Z,44.53
2019-05-06T11:08:34.261Z,46.60
2019-05-06T11:11:14.842Z,46.43
2019-05-06T11:13:33.573Z,46.63
2019-05-06T11:16:03.399Z,45.32
2019-05-06T11:18:33.551Z,47.47
2019-05-06T11:21:03.402Z,46.75
2019-05-06T11:23:33.819Z,46.06
2019-05-06T11:26:03.215Z,42.12
2019-05-06T11:28:52.071Z,40.66
2019-05-06T11:31:38.768Z,42.43
2019-05-06T11:34:25.461Z,40.80
2019-05-06T11:37:14.986Z,42.54
2019-05-06T11:39:44.133Z,42.82
2019-05-06T11:42:27.674Z,43.38
2019-05-06T11:44:44.305Z,43.05
2019-05-06T11:47:13.202Z,42.42
2019-05-06T11:49:44.128Z,47.56
2019-05-06T11:52:13.073Z,49.38
2019-05-06T11:54:42.373Z,48.42
2019-05-06T11:57:13.934Z,51.70
2019-05-06T11:59:45.503Z,52.30
2019-05-06T12:02:23.415Z,51.16
2019-05-06T12:04:53.078Z,52.24
2019-05-06T12:07:26.791Z,55.69
2019-05-06T12:10:03.032Z,52.44
2019-05-06T12:12:39.013Z,54.32
2019-05-06T12:15:13.291Z,55.71
2019-05-06T12:17:45.167Z,53.06
2019-05-06T12:20:22.268Z,53.59
2019-05-06T12:22:57.485Z,52.35
2019-05-06T12:25:37.181Z,55.57
2019-05-06T12:28:17.645Z,57.18
2019-05-06T12:30:48.960Z,56.13
2019-05-06T12:33:39.151Z,58.22
2019-05-06T12:36:21.272Z,56.30
2019-05-06T12:39:15.730Z,56.62
2019-05-06T12:42:16.708Z,53.97
2019-05-06T12:44:56.402Z,54.02
2019-05-06T12:47:59.900Z,54.02
2019-05-06T12:50:29.693Z,55.87
2019-05-06T12:53:07.017Z,58.55
2019-05-06T12:55:39.136Z,56.21
2019-05-06T12:58:13.577Z,53.65
2019-05-06T13:00:45.910Z,53.11
2019-05-06T13:03:14.982Z,53.42
2019-05-06T13:05:46.712Z,54.18
2019-05-06T13:08:28.343Z,52.41
2019-05-06T13:11:02.866Z,54.57
2019-05-06T13:13:37.647Z,52.30
2019-05-06T13:16:12.550Z,50.88
2019-05-06T13:18:47.662Z,54.04
2019-05-06T13:21:16.329Z,55.24
2019-05-06T13:23:55.852Z,49.39
2019-05-06T13:26:25.299Z,50.84
2019-05-06T13:29:04.099Z,46.67
2019-05-06T13:31:33.924Z,47.41
2019-05-06T13:34:06.348Z,50.95
2019-05-06T13:36:47.438Z,46.86
2019-05-06T13:39:16.565Z,45.75
2019-05-06T13:41:48.806Z,44.30
2019-05-06T13:44:22.804Z,43.98
2019-05-06T13:47:02.797Z,46.14
2019-05-06T13:49:52.238Z,45.90
2019-05-06T13:52:25.021Z,49.14
2019-05-06T13:54:54.108Z,45.05
2019-05-06T13:57:32.662Z,45.09
2019-05-06T14:00:03.149Z,45.68
2019-05-06T14:02:49.411Z,45.37
2019-05-06T14:05:18.560Z,44.85
2019-05-06T14:07:47.609Z,44.15
2019-05-06T14:10:16.861Z,44.15
2019-05-06T14:12:45.999Z,44.66
2019-05-06T14:15:23.179Z,47.37
2019-05-06T14:17:56.880Z,44.20
2019-05-06T14:20:33.551Z,40.35
2019-05-06T14:23:02.871Z,42.44
2019-05-06T14:25:52.914Z,39.41
2019-05-06T14:28:32.438Z,38.57
2019-05-06T14:31:25.771Z,38.15
2019-05-06T14:33:57.902Z,38.14
2019-05-06T14:36:35.913Z,40.34
2019-05-06T14:39:16.930Z,38.85
2019-05-06T14:41:54.644Z,39.73
2019-05-06T14:44:27.306Z,42.55
2019-05-06T14:47:13.488Z,42.13
2019-05-06T14:49:43.288Z,43.10
2019-05-06T14:52:13.811Z,46.33
2019-05-06T14:54:53.226Z,47.92
2019-05-06T14:57:23.998Z,51.15
2019-05-06T14:59:55.608Z,49.56
2019-05-06T15:02:27.175Z,50.70
2019-05-06T15:04:56.595Z,52.74
2019-05-06T15:07:33.833Z,53.93
2019-05-06T15:10:16.502Z,53.57
2019-05-06T15:12:33.431Z,54.20
2019-05-06T15:15:03.777Z,51.60
2019-05-06T15:17:36.528Z,51.55
2019-05-06T15:20:03.952Z,53.31
2019-05-06T15:22:37.904Z,51.77
2019-05-06T15:25:06.756Z,52.88
2019-05-06T15:27:37.274Z,53.04
2019-05-06T15:30:09.709Z,50.55
2019-05-06T15:32:39.538Z,51.00
2019-05-06T15:35:18.810Z,53.79
2019-05-06T15:37:55.959Z,54.26
2019-05-06T15:40:32.977Z,53.67
2019-05-06T15:42:55.446Z,55.21
2019-05-06T15:45:24.297Z,53.64
2019-05-06T15:47:53.112Z,54.76
2019-05-06T15:50:23.146Z,50.72
2019-05-06T15:52:54.010Z,51.14
2019-05-06T15:55:22.907Z,50.07
2019-05-06T15:57:52.598Z,50.36
2019-05-06T16:00:22.868Z,50.14
2019-05-06T16:02:53.046Z,47.41
2019-05-06T16:05:26.179Z,47.45
2019-05-06T16:07:53.078Z,48.69
2019-05-06T16:10:22.691Z,48.07
2019-05-06T16:12:53.457Z,45.94
2019-05-06T16:15:24.760Z,47.16
2019-05-06T16:17:53.589Z,48.27
2019-05-06T16:20:23.025Z,46.98
2019-05-06T16:22:57.867Z,46.58
2019-05-06T16:25:26.978Z,47.67
2019-05-06T16:27:57.115Z,48.10
2019-05-06T16:30:26.282Z,48.95
2019-05-06T16:32:55.153Z,51.70
2019-05-06T16:35:24.225Z,49.79
2019-05-06T16:37:53.117Z,50.31
2019-05-06T16:40:23.120Z,49.49
2019-05-06T16:42:54.451Z,49.35
2019-05-06T16:45:23.393Z,49.54
2019-05-06T16:47:52.603Z,49.63
2019-05-06T16:50:44.405Z,51.02
2019-05-06T16:53:13.255Z,51.81
2019-05-06T16:56:05.833Z,51.63
2019-05-06T16:58:37.523Z,53.10
2019-05-06T17:01:14.980Z,51.60
2019-05-06T17:03:53.199Z,51.75
2019-05-06T17:06:27.304Z,52.27
2019-05-06T17:08:56.108Z,50.95
2019-05-06T17:11:30.279Z,51.10
2019-05-06T17:13:56.872Z,51.04
2019-05-06T17:16:25.732Z,51.64
2019-05-06T17:18:56.716Z,51.09
2019-05-06T17:21:25.417Z,51.26
2019-05-06T17:24:02.385Z,52.74
2019-05-06T17:26:33.818Z,52.67
2019-05-06T17:29:09.807Z,51.69
2019-05-06T17:32:03.954Z,51.79
2019-05-06T17:34:35.789Z,52.57
2019-05-06T17:37:15.933Z,53.61
2019-05-06T17:39:45.126Z,53.23
2019-05-06T17:42:14.188Z,52.90
2019-05-06T17:44:43.152Z,52.97
2019-05-06T17:47:27.121Z,52.66
2019-05-06T17:49:56.029Z,53.57
2019-05-06T17:52:24.797Z,53.98
2019-05-06T17:54:53.760Z,54.28
2019-05-06T17:57:22.725Z,52.82
2019-05-06T17:59:52.816Z,52.14
2019-05-06T18:02:23.487Z,51.80
2019-05-06T18:04:53.224Z,52.17
2019-05-06T18:07:22.425Z,51.63
2019-05-06T18:09:52.231Z,51.21
2019-05-06T18:12:23.182Z,51.00
2019-05-06T18:14:56.442Z,51.25
2019-05-06T18:17:25.679Z,50.98
2019-05-06T18:19:54.372Z,50.75
2019-05-06T18:22:23.242Z,51.71
2019-05-06T18:24:52.647Z,52.21
2019-05-06T18:27:22.608Z,52.13
2019-05-06T18:29:53.272Z,52.62
2019-05-06T18:32:23.359Z,52.69
2019-05-06T18:34:52.789Z,52.60
2019-05-06T18:37:23.475Z,52.80
2019-05-06T18:39:53.062Z,53.32
2019-05-06T18:42:23.696Z,53.87
2019-05-06T18:44:53.529Z,55.17
2019-05-06T18:47:22.511Z,54.93
2019-05-06T18:49:52.312Z,55.15
2019-05-06T18:52:22.886Z,54.84
2019-05-06T18:54:52.484Z,55.32
2019-05-06T18:57:22.656Z,54.29
2019-05-06T18:59:53.257Z,54.96
2019-05-06T19:02:22.992Z,53.85
2019-05-06T19:05:13.092Z,54.08
2019-05-06T19:07:43.647Z,54.20
2019-05-06T19:10:18.453Z,54.31
2019-05-06T19:12:47.447Z,54.14
2019-05-06T19:15:16.323Z,54.43
2019-05-06T19:17:45.434Z,53.27
2019-05-06T19:20:14.321Z,53.66
2019-05-06T19:22:43.594Z,52.98
2019-05-06T19:25:14.626Z,53.61
2019-05-06T19:27:43.519Z,54.12
2019-05-06T19:30:13.031Z,53.68
2019-05-06T19:32:45.372Z,53.52
2019-05-06T19:35:14.488Z,54.62
2019-05-06T19:37:43.965Z,54.47
2019-05-06T19:40:13.252Z,55.11
2019-05-06T19:42:49.422Z,55.23
2019-05-06T19:45:17.656Z,56.40
2019-05-06T19:47:46.530Z,55.97
2019-05-06T19:50:20.991Z,56.60
2019-05-06T19:52:52.867Z,57.70
2019-05-06T19:55:23.071Z,58.05
2019-05-06T19:57:52.687Z,57.45
2019-05-06T20:00:24.354Z,57.65
2019-05-06T20:02:54.289Z,58.16
2019-05-06T20:05:30.360Z,58.44
2019-05-06T20:08:33.611Z,58.42
2019-05-06T20:11:15.185Z,57.49
2019-05-06T20:13:45.093Z,58.03
2019-05-06T20:16:14.024Z,58.75
2019-05-06T20:18:43.002Z,59.69
2019-05-06T20:21:11.884Z,58.77
2019-05-06T20:23:42.508Z,59.94
2019-05-06T20:26:12.428Z,59.88
2019-05-06T20:28:42.989Z,60.33
2019-05-06T20:31:12.088Z,60.08
2019-05-06T20:33:42.232Z,60.26
2019-05-06T20:36:12.604Z,61.41
2019-05-06T20:38:42.339Z,60.67
2019-05-06T20:41:12.595Z,61.88
2019-05-06T20:43:42.331Z,61.58
2019-05-06T20:46:12.526Z,62.41
2019-05-06T20:48:42.172Z,62.47
2019-05-06T20:51:12.315Z,62.85
2019-05-06T20:53:43.199Z,63.01
2019-05-06T20:56:12.508Z,63.11
2019-05-06T20:58:43.527Z,64.14
2019-05-06T21:01:13.247Z,63.81
2019-05-06T21:03:42.534Z,64.27
2019-05-06T21:06:13.167Z,64.44
2019-05-06T21:08:43.191Z,64.69
2019-05-06T21:11:25.770Z,65.21
2019-05-06T21:13:43.291Z,65.45
2019-05-06T21:16:12.969Z,65.76
2019-05-06T21:18:42.064Z,65.81
2019-05-06T21:21:13.604Z,66.42
2019-05-06T21:23:44.498Z,66.67
2019-05-06T21:26:13.716Z,66.52
2019-05-06T21:28:46.379Z,67.04
2019-05-06T21:31:14.401Z,67.14
2019-05-06T21:33:45.165Z,67.41
2019-05-06T21:36:14.226Z,67.75
2019-05-06T21:38:44.108Z,67.59
2019-05-06T21:41:17.732Z,67.70
2019-05-06T21:43:49.684Z,67.96
2019-05-06T21:46:15.969Z,67.72
2019-05-06T21:48:44.958Z,67.85
2019-05-06T21:51:15.157Z,67.96
2019-05-06T21:53:44.045Z,68.11
2019-05-06T21:56:13.176Z,68.14
2019-05-06T21:58:42.762Z,68.21
2019-05-06T22:01:11.857Z,68.25
2019-05-06T22:03:43.193Z,68.25
2019-05-06T22:06:12.995Z,68.57
2019-05-06T22:08:42.468Z,69.01
2019-05-06T22:11:11.349Z,68.95
2019-05-06T22:13:42.387Z,69.25
2019-05-06T22:16:12.267Z,69.59
2019-05-06T22:18:43.232Z,69.79
2019-05-06T22:21:23.350Z,69.86
2019-05-06T22:23:54.471Z,70.26
2019-05-06T22:26:23.848Z,70.19
2019-05-06T22:28:52.759Z,70.72
2019-05-06T22:31:24.178Z,70.90
2019-05-06T22:33:52.464Z,71.04
2019-05-06T22:36:22.678Z,71.13
2019-05-06T22:38:53.053Z,71.59
2019-05-06T22:41:23.122Z,71.74
2019-05-06T22:43:53.267Z,72.00
2019-05-06T22:46:23.425Z,72.40
2019-05-06T22:48:54.415Z,72.57
2019-05-06T22:51:23.033Z,73.07
2019-05-06T22:53:53.246Z,73.06
2019-05-06T22:56:23.001Z,73.52
2019-05-06T22:58:52.595Z,73.35
2019-05-06T23:01:49.491Z,73.43
2019-05-06T23:04:19.240Z,73.57
2019-05-06T23:06:48.068Z,73.62
2019-05-06T23:09:16.810Z,73.55
2019-05-06T23:11:45.513Z,73.76
2019-05-06T23:14:27.856Z,73.75
2019-05-06T23:16:46.900Z,73.80
2019-05-06T23:19:15.592Z,73.98
2019-05-06T23:21:44.336Z,74.00
2019-05-06T23:24:13.351Z,74.13
2019-05-06T23:26:42.221Z,74.26
2019-05-06T23:29:12.946Z,74.40
2019-05-06T23:31:42.489Z,74.33
2019-05-06T23:34:12.532Z,74.48
2019-05-06T23:37:27.722Z,74.55
2019-05-06T23:40:35.980Z,74.48
2019-05-06T23:43:42.752Z,74.41
2019-05-06T23:46:47.739Z,74.72
2019-05-06T23:49:52.804Z,74.69
2019-05-06T23:52:57.792Z,74.87
2019-05-06T23:56:02.945Z,74.96
2019-05-06T23:58:32.368Z,74.95
